createdAt,value
2023-04-18T00:01:01.858Z,80.65
2023-04-18T00:03:32.590Z,80.17
2023-04-18T00:06:03.555Z,80.28
2023-04-18T00:08:34.231Z,80.36
2023-04-18T00:11:04.744Z,80.29
2023-04-18T00:13:35.644Z,80.38
2023-04-18T00:16:07.982Z,80.14
2023-04-18T00:18:39.976Z,80.40
2023-04-18T00:21:10.412Z,80.75
2023-04-18T00:23:41.682Z,80.87
2023-04-18T00:26:12.226Z,80.66
2023-04-18T00:28:42.990Z,80.77
2023-04-18T00:31:13.544Z,80.78
2023-04-18T00:33:44.386Z,80.86
2023-04-18T00:36:15.099Z,81.36
2023-04-18T00:38:45.545Z,81.22
2023-04-18T00:41:16.559Z,81.43
2023-04-18T00:43:47.525Z,81.62
2023-04-18T00:46:18.009Z,81.66
2023-04-18T00:48:48.725Z,81.91
2023-04-18T00:51:19.378Z,81.88
2023-04-18T00:53:49.897Z,81.86
2023-04-18T00:56:20.420Z,81.91
2023-04-18T00:58:51.252Z,81.85
2023-04-18T01:01:22.065Z,82.14
2023-04-18T01:03:52.707Z,82.44
2023-04-18T01:06:23.756Z,82.64
2023-04-18T01:08:54.933Z,83.14
2023-04-18T01:11:25.650Z,83.42
2023-04-18T01:14:03.608Z,83.97
2023-04-18T01:16:33.629Z,84.30
2023-04-18T01:19:05.715Z,84.57
2023-04-18T01:21:37.361Z,84.79
2023-04-18T01:24:12.727Z,85.13
2023-04-18T01:26:45.266Z,85.26
2023-04-18T01:29:16.000Z,85.74
2023-04-18T01:31:46.503Z,86.02
2023-04-18T01:34:17.748Z,86.32
2023-04-18T01:36:48.852Z,86.54
2023-04-18T01:39:19.350Z,86.99
2023-04-18T01:41:49.743Z,86.82
2023-04-18T01:44:20.520Z,87.01
2023-04-18T01:46:51.838Z,87.00
2023-04-18T01:49:22.622Z,86.91
2023-04-18T01:51:53.087Z,86.88
2023-04-18T01:54:23.486Z,86.96
2023-04-18T01:56:54.456Z,87.34
2023-04-18T01:59:24.867Z,87.32
2023-04-18T02:01:55.688Z,87.55
2023-04-18T02:04:26.451Z,87.55
2023-04-18T02:06:57.724Z,87.85
2023-04-18T02:09:28.501Z,87.93
2023-04-18T02:11:59.453Z,87.83
2023-04-18T02:14:32.246Z,87.96
2023-04-18T02:17:02.881Z,88.18
2023-04-18T02:19:33.484Z,88.06
2023-04-18T02:22:04.214Z,88.33
2023-04-18T02:24:34.921Z,88.06
2023-04-18T02:27:05.713Z,88.20
2023-04-18T02:29:36.436Z,88.29
2023-04-18T02:32:08.064Z,88.09
2023-04-18T02:34:39.356Z,88.18
2023-04-18T02:37:09.779Z,88.19
2023-04-18T02:39:40.243Z,88.26
2023-04-18T02:42:10.636Z,88.20
2023-04-18T02:44:41.422Z,88.39
2023-04-18T02:47:11.780Z,88.52
2023-04-18T02:49:42.222Z,88.47
2023-04-18T02:52:12.976Z,88.48
2023-04-18T02:54:43.652Z,88.50
2023-04-18T02:57:14.498Z,88.80
2023-04-18T02:59:45.013Z,88.46
2023-04-18T03:02:15.814Z,88.50
2023-04-18T03:04:46.470Z,88.53
2023-04-18T03:07:16.976Z,88.32
2023-04-18T03:09:47.372Z,88.41
2023-04-18T03:12:17.881Z,88.40
2023-04-18T03:14:48.392Z,88.49
2023-04-18T03:17:19.138Z,88.43
2023-04-18T03:19:49.828Z,88.36
2023-04-18T03:22:20.255Z,88.48
2023-04-18T03:24:51.036Z,88.17
2023-04-18T03:27:21.598Z,88.41
2023-04-18T03:29:52.004Z,88.38
2023-04-18T03:32:22.555Z,88.40
2023-04-18T03:34:54.151Z,88.43
2023-04-18T03:37:24.782Z,88.63
2023-04-18T03:39:55.222Z,88.60
2023-04-18T03:42:25.978Z,88.78
2023-04-18T03:44:56.900Z,88.56
2023-04-18T03:47:27.439Z,88.23
2023-04-18T03:49:57.929Z,88.35
2023-04-18T03:52:29.837Z,88.06
2023-04-18T03:55:00.846Z,88.22
2023-04-18T03:57:31.856Z,88.23
2023-04-18T04:00:03.493Z,88.14
2023-04-18T04:02:34.450Z,88.27
2023-04-18T04:05:05.796Z,88.05
2023-04-18T04:07:36.258Z,88.04
2023-04-18T04:10:07.794Z,87.93
2023-04-18T04:12:38.543Z,87.78
2023-04-18T04:15:10.628Z,87.83
2023-04-18T04:17:41.729Z,87.85
2023-04-18T04:20:13.616Z,87.76
2023-04-18T04:22:44.100Z,87.60
2023-04-18T04:25:15.216Z,87.69
2023-04-18T04:27:46.025Z,87.54
2023-04-18T04:30:17.000Z,87.63
2023-04-18T04:32:47.694Z,87.67
2023-04-18T04:35:18.808Z,87.59
2023-04-18T04:37:50.682Z,87.14
2023-04-18T04:40:22.961Z,87.06
2023-04-18T04:42:54.397Z,87.00
2023-04-18T04:45:25.032Z,86.92
2023-04-18T04:47:55.702Z,87.05
2023-04-18T04:50:26.282Z,86.93
2023-04-18T04:52:56.955Z,86.48
2023-04-18T04:55:27.438Z,86.76
2023-04-18T04:57:58.175Z,86.90
2023-04-18T05:00:28.806Z,86.40
2023-04-18T05:02:59.841Z,86.21
2023-04-18T05:05:30.963Z,86.50
2023-04-18T05:08:01.394Z,86.13
2023-04-18T05:10:32.492Z,86.15
2023-04-18T05:13:03.388Z,86.16
2023-04-18T05:15:33.929Z,86.24
2023-04-18T05:18:04.824Z,85.99
2023-04-18T05:20:35.361Z,86.24
2023-04-18T05:23:05.956Z,86.19
2023-04-18T05:25:36.748Z,86.29
2023-04-18T05:28:08.422Z,86.23
2023-04-18T05:30:38.960Z,86.04
2023-04-18T05:33:10.860Z,86.07
2023-04-18T05:35:41.323Z,85.67
2023-04-18T05:38:12.121Z,85.55
2023-04-18T05:40:43.389Z,85.82
2023-04-18T05:43:13.963Z,85.77
2023-04-18T05:45:44.376Z,85.69
2023-04-18T05:48:14.782Z,85.72
2023-04-18T05:50:45.283Z,85.60
2023-04-18T05:53:15.970Z,85.56
2023-04-18T05:55:48.740Z,85.89
2023-04-18T05:58:19.306Z,85.71
2023-04-18T06:00:49.910Z,85.48
2023-04-18T06:03:20.769Z,85.22
2023-04-18T06:05:51.763Z,85.25
2023-04-18T06:08:22.196Z,85.53
2023-04-18T06:10:52.743Z,85.83
2023-04-18T06:13:23.421Z,85.93
2023-04-18T06:15:53.960Z,85.36
2023-04-18T06:18:24.590Z,85.42
2023-04-18T06:20:55.236Z,85.57
2023-04-18T06:23:25.667Z,84.85
2023-04-18T06:25:56.581Z,84.68
2023-04-18T06:28:27.131Z,85.03
2023-04-18T06:30:57.559Z,84.44
2023-04-18T06:33:28.638Z,84.37
2023-04-18T06:35:59.156Z,83.86
2023-04-18T06:38:29.895Z,83.60
2023-04-18T06:41:00.436Z,83.47
2023-04-18T06:43:31.240Z,84.09
2023-04-18T06:46:02.052Z,83.41
2023-04-18T06:48:32.851Z,83.50
2023-04-18T06:51:03.228Z,83.53
2023-04-18T06:53:33.641Z,83.22
2023-04-18T06:56:05.259Z,83.28
2023-04-18T06:58:35.956Z,83.12
2023-04-18T07:01:06.515Z,83.23
2023-04-18T07:03:37.291Z,83.25
2023-04-18T07:06:10.555Z,82.81
2023-04-18T07:08:41.876Z,82.19
2023-04-18T07:11:13.213Z,82.25
2023-04-18T07:13:43.541Z,81.97
2023-04-18T07:16:14.178Z,82.34
2023-04-18T07:18:45.115Z,82.08
2023-04-18T07:21:15.655Z,82.42
2023-04-18T07:23:46.349Z,82.69
2023-04-18T07:26:17.087Z,82.22
2023-04-18T07:28:47.556Z,81.87
2023-04-18T07:31:19.463Z,81.64
2023-04-18T07:33:49.960Z,81.38
2023-04-18T07:36:20.513Z,81.15
2023-04-18T07:38:51.765Z,81.79
2023-04-18T07:41:22.187Z,80.98
2023-04-18T07:43:53.111Z,80.38
2023-04-18T07:46:23.851Z,80.71
2023-04-18T07:48:54.696Z,80.98
2023-04-18T07:51:31.077Z,80.59
2023-04-18T07:54:02.227Z,81.01
2023-04-18T07:56:32.783Z,80.55
2023-04-18T07:59:03.178Z,80.56
2023-04-18T08:01:33.694Z,79.49
2023-04-18T08:04:04.577Z,79.36
2023-04-18T08:06:35.714Z,78.32
2023-04-18T08:09:06.476Z,79.29
2023-04-18T08:11:37.220Z,78.27
2023-04-18T08:14:07.966Z,76.65
2023-04-18T08:16:38.751Z,76.04
2023-04-18T08:19:09.216Z,75.97
2023-04-18T08:21:40.059Z,75.96
2023-04-18T08:24:11.172Z,75.99
2023-04-18T08:26:42.139Z,74.98
2023-04-18T08:29:13.337Z,74.61
2023-04-18T08:31:44.800Z,74.94
2023-04-18T08:34:15.272Z,73.81
2023-04-18T08:36:46.789Z,74.40
2023-04-18T08:39:18.044Z,74.81
2023-04-18T08:41:54.486Z,75.37
2023-04-18T08:44:24.898Z,74.94
2023-04-18T08:46:55.874Z,73.63
2023-04-18T08:49:26.780Z,71.31
2023-04-18T08:51:58.497Z,71.31
2023-04-18T08:54:30.409Z,70.02
2023-04-18T08:57:08.777Z,70.62
2023-04-18T08:59:40.409Z,70.64
2023-04-18T09:02:11.721Z,70.43
2023-04-18T09:04:44.927Z,70.37
2023-04-18T09:07:18.218Z,70.48
2023-04-18T09:09:50.309Z,69.95
2023-04-18T09:12:22.567Z,70.56
2023-04-18T09:14:56.538Z,70.19
2023-04-18T09:17:38.007Z,70.94
2023-04-18T09:20:11.157Z,70.08
2023-04-18T09:22:50.486Z,70.22
2023-04-18T09:25:34.888Z,69.93
2023-04-18T09:28:06.479Z,70.07
2023-04-18T09:30:39.590Z,69.29
2023-04-18T09:33:12.688Z,69.63
2023-04-18T09:35:43.450Z,69.00
2023-04-18T09:38:13.929Z,67.79
2023-04-18T09:40:44.278Z,68.84
2023-04-18T09:43:23.733Z,69.30
2023-04-18T09:45:54.503Z,69.15
2023-04-18T09:48:24.885Z,69.12
2023-04-18T09:50:56.963Z,68.34
2023-04-18T09:53:27.981Z,68.20
2023-04-18T09:55:58.577Z,68.48
2023-04-18T09:58:33.680Z,68.51
2023-04-18T10:01:06.292Z,68.91
2023-04-18T10:03:42.608Z,68.55
2023-04-18T10:06:16.928Z,67.65
2023-04-18T10:08:48.927Z,66.32
2023-04-18T10:11:20.356Z,66.79
2023-04-18T10:13:54.529Z,65.79
2023-04-18T10:16:26.616Z,66.12
2023-04-18T10:18:58.291Z,65.79
2023-04-18T10:21:31.394Z,66.94
2023-04-18T10:24:01.942Z,67.47
2023-04-18T10:26:50.306Z,66.79
2023-04-18T10:29:46.497Z,65.87
2023-04-18T10:32:17.406Z,66.76
2023-04-18T10:34:49.350Z,67.41
2023-04-18T10:37:19.814Z,66.71
2023-04-18T10:40:00.332Z,66.41
2023-04-18T10:43:00.378Z,66.96
2023-04-18T10:45:36.173Z,65.85
2023-04-18T10:48:29.809Z,65.79
2023-04-18T10:51:20.804Z,66.32
2023-04-18T10:53:57.221Z,66.24
2023-04-18T10:56:28.900Z,67.37
2023-04-18T10:59:04.408Z,67.29
2023-04-18T11:01:38.031Z,66.39
2023-04-18T11:04:15.512Z,66.05
2023-04-18T11:06:51.515Z,65.28
2023-04-18T11:09:22.478Z,65.36
2023-04-18T11:12:07.576Z,65.32
2023-04-18T11:14:48.700Z,65.88
2023-04-18T11:17:20.584Z,66.22
2023-04-18T11:19:51.562Z,65.76
2023-04-18T11:22:22.030Z,64.05
2023-04-18T11:24:52.863Z,63.49
2023-04-18T11:27:27.750Z,63.78
2023-04-18T11:29:58.405Z,63.90
2023-04-18T11:32:29.236Z,64.66
2023-04-18T11:34:59.812Z,64.48
2023-04-18T11:37:30.682Z,64.29
2023-04-18T11:40:01.342Z,63.87
2023-04-18T11:42:35.280Z,62.27
2023-04-18T11:45:09.634Z,62.46
2023-04-18T11:47:41.797Z,63.00
2023-04-18T11:50:13.819Z,63.68
2023-04-18T11:52:50.526Z,62.56
2023-04-18T11:55:23.841Z,62.21
2023-04-18T11:57:55.354Z,61.92
2023-04-18T12:00:38.416Z,61.81
2023-04-18T12:03:16.155Z,61.22
2023-04-18T12:05:47.554Z,61.84
2023-04-18T12:08:21.785Z,61.83
2023-04-18T12:10:54.149Z,62.26
2023-04-18T12:13:32.282Z,60.70
2023-04-18T12:16:04.143Z,61.30
2023-04-18T12:18:34.649Z,62.09
2023-04-18T12:21:07.525Z,62.70
2023-04-18T12:23:40.054Z,63.29
2023-04-18T12:26:15.048Z,62.98
2023-04-18T12:28:51.123Z,63.46
2023-04-18T12:31:22.607Z,62.18
2023-04-18T12:33:54.383Z,62.83
2023-04-18T12:36:25.281Z,62.30
2023-04-18T12:38:55.834Z,62.38
2023-04-18T12:41:26.544Z,62.97
2023-04-18T12:43:56.983Z,63.14
2023-04-18T12:46:28.389Z,63.45
2023-04-18T12:48:58.854Z,62.21
2023-04-18T12:51:29.322Z,62.70
2023-04-18T12:53:59.849Z,61.32
2023-04-18T12:56:30.382Z,60.70
2023-04-18T12:59:01.137Z,60.86
2023-04-18T13:01:31.626Z,59.92
2023-04-18T13:04:11.825Z,59.12
2023-04-18T13:06:43.773Z,58.66
2023-04-18T13:09:16.958Z,59.21
2023-04-18T13:11:49.547Z,59.91
2023-04-18T13:14:21.189Z,59.82
2023-04-18T13:16:51.867Z,60.36
2023-04-18T13:19:22.500Z,60.83
2023-04-18T13:21:53.268Z,60.07
2023-04-18T13:24:23.754Z,61.01
2023-04-18T13:26:54.339Z,61.74
2023-04-18T13:29:25.042Z,61.08
2023-04-18T13:31:55.543Z,59.99
2023-04-18T13:34:26.090Z,60.73
2023-04-18T13:36:58.976Z,62.07
2023-04-18T13:39:29.668Z,62.00
2023-04-18T13:42:02.618Z,60.47
2023-04-18T13:44:34.114Z,59.81
2023-04-18T13:47:05.393Z,60.30
2023-04-18T13:49:36.363Z,60.28
2023-04-18T13:52:07.557Z,61.65
2023-04-18T13:54:38.333Z,61.20
2023-04-18T13:57:11.576Z,60.93
2023-04-18T13:59:42.179Z,61.43
2023-04-18T14:02:13.217Z,60.69
2023-04-18T14:04:43.908Z,61.37
2023-04-18T14:07:14.467Z,61.93
2023-04-18T14:09:45.001Z,62.13
2023-04-18T14:12:15.523Z,61.17
2023-04-18T14:14:46.007Z,61.50
2023-04-18T14:17:16.533Z,61.50
2023-04-18T14:19:48.005Z,61.33
2023-04-18T14:22:18.418Z,61.90
2023-04-18T14:24:49.149Z,61.34
2023-04-18T14:27:19.705Z,61.65
2023-04-18T14:29:50.576Z,61.73
2023-04-18T14:32:21.138Z,61.63
2023-04-18T14:34:52.466Z,62.05
2023-04-18T14:37:23.050Z,62.24
2023-04-18T14:39:53.619Z,63.11
2023-04-18T14:42:24.214Z,63.73
2023-04-18T14:44:55.325Z,64.62
2023-04-18T14:47:31.218Z,64.30
2023-04-18T14:50:01.971Z,64.18
2023-04-18T14:52:32.821Z,64.58
2023-04-18T14:55:04.156Z,64.59
2023-04-18T14:57:35.495Z,64.71
2023-04-18T15:00:08.895Z,65.23
2023-04-18T15:02:39.690Z,65.36
2023-04-18T15:05:11.874Z,65.18
2023-04-18T15:07:43.485Z,65.79
2023-04-18T15:10:15.159Z,65.33
2023-04-18T15:12:46.751Z,65.05
2023-04-18T15:15:17.245Z,65.12
2023-04-18T15:17:47.751Z,65.47
2023-04-18T15:20:18.248Z,65.70
2023-04-18T15:22:48.646Z,65.92
2023-04-18T15:25:19.463Z,65.43
2023-04-18T15:27:50.250Z,65.79
2023-04-18T15:30:20.861Z,65.53
2023-04-18T15:32:52.130Z,65.64
2023-04-18T15:35:22.844Z,65.81
2023-04-18T15:37:54.027Z,66.44
2023-04-18T15:40:24.842Z,66.39
2023-04-18T15:42:57.656Z,66.48
2023-04-18T15:45:28.217Z,66.51
2023-04-18T15:47:58.721Z,66.46
2023-04-18T15:50:30.251Z,66.82
2023-04-18T15:53:02.755Z,67.00
2023-04-18T15:55:34.299Z,67.14
2023-04-18T15:58:05.033Z,67.65
2023-04-18T16:00:35.717Z,67.69
2023-04-18T16:03:09.832Z,67.38
2023-04-18T16:05:40.323Z,67.15
2023-04-18T16:08:11.480Z,67.59
2023-04-18T16:10:41.969Z,67.57
2023-04-18T16:13:12.491Z,67.52
2023-04-18T16:15:43.122Z,67.28
2023-04-18T16:18:14.091Z,67.75
2023-04-18T16:20:45.045Z,67.78
2023-04-18T16:23:15.566Z,68.19
2023-04-18T16:25:46.028Z,68.28
2023-04-18T16:28:16.357Z,68.40
2023-04-18T16:30:47.171Z,68.05
2023-04-18T16:33:20.645Z,68.11
2023-04-18T16:35:51.209Z,68.64
2023-04-18T16:38:23.424Z,68.92
2023-04-18T16:40:55.072Z,68.64
2023-04-18T16:43:26.831Z,68.90
2023-04-18T16:45:57.929Z,68.56
2023-04-18T16:48:28.917Z,68.57
2023-04-18T16:50:59.425Z,68.57
2023-04-18T16:53:30.134Z,68.96
2023-04-18T16:56:00.859Z,69.03
2023-04-18T16:58:31.272Z,68.71
2023-04-18T17:01:03.684Z,69.38
2023-04-18T17:03:34.518Z,69.49
2023-04-18T17:06:05.760Z,69.43
2023-04-18T17:08:36.571Z,69.45
2023-04-18T17:11:07.529Z,69.48
2023-04-18T17:13:37.974Z,69.46
2023-04-18T17:16:09.825Z,69.73
2023-04-18T17:18:41.572Z,69.43
2023-04-18T17:21:12.538Z,69.77
2023-04-18T17:23:43.658Z,70.06
2023-04-18T17:26:14.061Z,69.93
2023-04-18T17:28:45.056Z,70.03
2023-04-18T17:31:17.183Z,70.35
2023-04-18T17:33:50.569Z,70.33
2023-04-18T17:36:21.223Z,70.23
2023-04-18T17:38:51.873Z,70.26
2023-04-18T17:41:23.424Z,70.49
2023-04-18T17:43:54.085Z,70.34
2023-04-18T17:46:26.789Z,70.42
2023-04-18T17:48:59.894Z,70.68
2023-04-18T17:51:32.868Z,70.72
2023-04-18T17:54:11.433Z,70.38
2023-04-18T17:56:46.232Z,70.91
2023-04-18T17:59:19.212Z,70.96
2023-04-18T18:01:54.077Z,70.74
2023-04-18T18:04:28.499Z,70.83
2023-04-18T18:07:02.075Z,71.09
2023-04-18T18:09:35.518Z,71.22
2023-04-18T18:12:12.581Z,71.42
2023-04-18T18:14:45.253Z,71.54
2023-04-18T18:17:18.296Z,71.61
2023-04-18T18:19:50.861Z,71.57
2023-04-18T18:22:26.545Z,71.37
2023-04-18T18:24:59.673Z,71.14
2023-04-18T18:27:33.979Z,71.03
2023-04-18T18:30:07.481Z,71.06
2023-04-18T18:32:40.398Z,71.01
2023-04-18T18:35:17.464Z,71.22
2023-04-18T18:37:50.417Z,70.95
2023-04-18T18:40:23.401Z,70.85
2023-04-18T18:43:00.782Z,70.54
2023-04-18T18:45:33.680Z,70.83
2023-04-18T18:48:10.301Z,71.04
2023-04-18T18:50:43.163Z,71.19
2023-04-18T18:53:19.579Z,71.40
2023-04-18T18:55:52.449Z,71.37
2023-04-18T18:58:25.381Z,70.79
2023-04-18T19:00:59.212Z,70.82
2023-04-18T19:03:32.156Z,69.41
2023-04-18T19:06:08.207Z,69.44
2023-04-18T19:08:40.719Z,69.70
2023-04-18T19:11:14.240Z,68.26
2023-04-18T19:13:47.279Z,67.10
2023-04-18T19:16:21.596Z,66.45
2023-04-18T19:18:54.976Z,66.80
2023-04-18T19:21:29.422Z,67.01
2023-04-18T19:24:02.000Z,66.76
2023-04-18T19:26:34.747Z,66.54
2023-04-18T19:29:11.093Z,66.97
2023-04-18T19:31:44.217Z,66.53
2023-04-18T19:34:19.345Z,66.65
2023-04-18T19:36:51.804Z,66.25
2023-04-18T19:39:24.527Z,65.36
2023-04-18T19:41:57.410Z,65.52
2023-04-18T19:44:32.437Z,66.08
2023-04-18T19:47:05.004Z,65.64
2023-04-18T19:49:37.195Z,65.55
2023-04-18T19:52:09.454Z,65.41
2023-04-18T19:54:43.600Z,65.61
2023-04-18T19:57:16.176Z,65.72
2023-04-18T19:59:48.699Z,65.68
2023-04-18T20:02:21.002Z,65.92
2023-04-18T20:04:53.398Z,65.79
2023-04-18T20:07:26.357Z,65.92
2023-04-18T20:09:58.705Z,65.85
2023-04-18T20:12:31.030Z,66.10
2023-04-18T20:15:03.864Z,66.21
2023-04-18T20:17:36.523Z,66.12
2023-04-18T20:20:12.534Z,65.87
2023-04-18T20:22:50.621Z,65.83
2023-04-18T20:25:23.097Z,66.07
2023-04-18T20:27:55.514Z,65.46
2023-04-18T20:30:28.714Z,65.22
2023-04-18T20:33:00.942Z,65.01
2023-04-18T20:35:33.233Z,64.90
2023-04-18T20:38:07.641Z,64.66
2023-04-18T20:40:43.158Z,64.87
2023-04-18T20:43:17.829Z,64.68
2023-04-18T20:45:51.662Z,64.89
2023-04-18T20:48:24.081Z,64.83
2023-04-18T20:50:56.280Z,64.41
2023-04-18T20:53:29.560Z,64.15
2023-04-18T20:56:02.488Z,63.73
2023-04-18T20:58:35.292Z,63.70
2023-04-18T21:01:07.464Z,63.79
2023-04-18T21:03:40.494Z,63.43
2023-04-18T21:06:14.105Z,63.52
2023-04-18T21:08:46.843Z,63.19
2023-04-18T21:11:19.037Z,63.50
2023-04-18T21:13:51.711Z,63.61
2023-04-18T21:16:24.436Z,63.60
2023-04-18T21:18:57.700Z,63.52
2023-04-18T21:21:30.642Z,63.98
2023-04-18T21:24:03.285Z,62.79
2023-04-18T21:26:36.609Z,61.51
2023-04-18T21:29:10.033Z,60.26
2023-04-18T21:31:42.496Z,59.25
2023-04-18T21:34:15.543Z,58.42
2023-04-18T21:36:48.090Z,58.22
2023-04-18T21:39:20.413Z,57.49
2023-04-18T21:41:52.900Z,57.61
2023-04-18T21:44:25.759Z,57.51
2023-04-18T21:46:58.042Z,57.14
2023-04-18T21:49:30.960Z,57.19
2023-04-18T21:52:03.802Z,57.53
2023-04-18T21:54:36.116Z,57.52
2023-04-18T21:57:08.669Z,57.86
2023-04-18T21:59:42.603Z,57.90
2023-04-18T22:02:15.358Z,57.87
2023-04-18T22:04:48.488Z,57.65
2023-04-18T22:07:20.929Z,57.74
2023-04-18T22:09:53.077Z,58.13
2023-04-18T22:12:25.296Z,58.51
2023-04-18T22:14:57.875Z,58.32
2023-04-18T22:17:30.508Z,58.81
2023-04-18T22:20:05.057Z,59.00
2023-04-18T22:22:38.010Z,59.51
2023-04-18T22:25:16.434Z,59.80
2023-04-18T22:27:48.862Z,60.38
2023-04-18T22:30:21.448Z,60.06
2023-04-18T22:32:55.421Z,60.18
2023-04-18T22:35:28.129Z,59.92
2023-04-18T22:38:01.793Z,59.58
2023-04-18T22:40:35.056Z,58.73
2023-04-18T22:43:07.716Z,58.63
2023-04-18T22:45:40.224Z,56.71
2023-04-18T22:48:13.689Z,55.97
2023-04-18T22:50:46.802Z,55.75
2023-04-18T22:53:20.690Z,54.26
2023-04-18T22:55:53.552Z,53.42
2023-04-18T22:58:27.717Z,52.58
2023-04-18T23:01:01.683Z,52.90
2023-04-18T23:03:35.819Z,52.44
2023-04-18T23:06:10.899Z,52.22
2023-04-18T23:08:44.707Z,52.49
2023-04-18T23:11:17.587Z,52.71
2023-04-18T23:13:50.049Z,52.73
2023-04-18T23:16:23.642Z,51.78
2023-04-18T23:18:55.832Z,52.33
2023-04-18T23:21:30.028Z,52.77
2023-04-18T23:24:02.008Z,51.69
2023-04-18T23:26:34.524Z,50.16
2023-04-18T23:29:07.213Z,48.49
2023-04-18T23:31:40.263Z,48.07
2023-04-18T23:34:13.858Z,47.72
2023-04-18T23:36:46.119Z,48.01
2023-04-18T23:39:19.180Z,48.66
2023-04-18T23:41:51.842Z,49.26
2023-04-18T23:44:24.540Z,48.93
2023-04-18T23:46:57.384Z,49.30
2023-04-18T23:49:29.877Z,48.79
2023-04-18T23:52:02.214Z,49.10
2023-04-18T23:54:34.501Z,49.15
2023-04-18T23:57:06.779Z,49.65
2023-04-18T23:59:39.234Z,49.71
